createdAt,value
2023-01-03T00:02:27.574Z,5.03
2023-01-03T00:04:55.379Z,4.30
2023-01-03T00:07:34.757Z,4.83
2023-01-03T00:10:03.556Z,4.03
2023-01-03T00:12:32.148Z,6.13
2023-01-03T00:15:01.686Z,5.10
2023-01-03T00:17:29.776Z,5.10
2023-01-03T00:19:57.514Z,4.80
2023-01-03T00:22:25.433Z,5.93
2023-01-03T00:24:54.317Z,4.43
2023-01-03T00:27:22.789Z,4.37
2023-01-03T00:29:50.706Z,4.60
2023-01-03T00:32:19.989Z,5.87
2023-01-03T00:34:48.568Z,5.00
2023-01-03T00:37:16.395Z,4.63
2023-01-03T00:39:44.763Z,6.43
2023-01-03T00:42:12.493Z,4.43
2023-01-03T00:44:40.204Z,4.63
2023-01-03T00:47:08.046Z,6.87
2023-01-03T00:49:37.336Z,6.53
2023-01-03T00:52:05.245Z,6.77
2023-01-03T00:54:33.410Z,7.50
2023-01-03T00:57:01.142Z,5.97
2023-01-03T00:59:28.927Z,6.10
2023-01-03T01:01:58.499Z,7.20
2023-01-03T01:04:28.649Z,6.00
2023-01-03T01:06:59.737Z,4.37
2023-01-03T01:09:29.656Z,5.40
2023-01-03T01:11:57.658Z,4.73
2023-01-03T01:14:28.281Z,3.53
2023-01-03T01:16:58.408Z,3.80
2023-01-03T01:19:29.618Z,5.13
2023-01-03T01:21:58.937Z,5.37
2023-01-03T01:24:27.245Z,5.47
2023-01-03T01:26:54.983Z,4.67
2023-01-03T01:29:23.262Z,4.43
2023-01-03T01:31:50.981Z,5.47
2023-01-03T01:34:19.134Z,5.47
2023-01-03T01:36:47.855Z,7.20
2023-01-03T01:39:19.299Z,5.77
2023-01-03T01:42:05.874Z,5.17
2023-01-03T01:44:47.170Z,5.17
2023-01-03T01:47:21.226Z,6.67
2023-01-03T01:49:52.608Z,7.00
2023-01-03T01:52:22.234Z,5.07
2023-01-03T01:54:54.502Z,5.97
2023-01-03T01:57:25.045Z,7.33
2023-01-03T01:59:52.801Z,7.10
2023-01-03T02:02:23.425Z,6.43
2023-01-03T02:04:54.961Z,7.60
2023-01-03T02:07:23.693Z,9.43
2023-01-03T02:09:58.655Z,5.53
2023-01-03T02:12:52.581Z,6.77
2023-01-03T02:15:30.785Z,9.27
2023-01-03T02:18:08.926Z,6.17
2023-01-03T02:20:57.973Z,8.10
2023-01-03T02:23:45.457Z,5.90
2023-01-03T02:26:32.173Z,8.80
2023-01-03T02:29:24.220Z,5.60
2023-01-03T02:32:02.290Z,7.60
2023-01-03T02:34:36.040Z,5.13
2023-01-03T02:37:13.336Z,7.47
2023-01-03T02:39:49.525Z,6.80
2023-01-03T02:42:43.175Z,6.23
2023-01-03T02:45:16.898Z,6.77
2023-01-03T02:47:55.035Z,6.40
2023-01-03T02:50:26.197Z,7.23
2023-01-03T02:52:57.950Z,4.73
2023-01-03T02:55:29.300Z,9.37
2023-01-03T02:58:02.031Z,5.67
2023-01-03T03:00:33.549Z,5.63
2023-01-03T03:03:09.711Z,6.30
2023-01-03T03:05:43.644Z,5.13
2023-01-03T03:08:11.458Z,4.17
2023-01-03T03:10:59.581Z,5.23
2023-01-03T03:13:40.077Z,7.53
2023-01-03T03:16:13.995Z,7.27
2023-01-03T03:18:51.691Z,6.43
2023-01-03T03:21:39.347Z,7.00
2023-01-03T03:24:32.121Z,5.27
2023-01-03T03:27:00.746Z,6.53
2023-01-03T03:29:29.069Z,4.97
2023-01-03T03:31:57.512Z,4.60
2023-01-03T03:34:30.469Z,4.70
2023-01-03T03:37:03.753Z,4.80
2023-01-03T03:39:50.583Z,5.50
2023-01-03T03:42:52.556Z,3.87
2023-01-03T03:45:25.626Z,5.37
2023-01-03T03:48:00.237Z,5.40
2023-01-03T03:50:32.412Z,5.87
2023-01-03T03:53:04.823Z,4.53
2023-01-03T03:55:38.489Z,6.97
2023-01-03T03:58:10.757Z,4.43
2023-01-03T04:00:42.336Z,5.80
2023-01-03T04:03:11.736Z,5.63
2023-01-03T04:05:43.606Z,5.43
2023-01-03T04:08:11.508Z,4.13
2023-01-03T04:10:39.504Z,5.50
2023-01-03T04:13:07.432Z,2.80
2023-01-03T04:15:35.215Z,5.40
2023-01-03T04:18:02.976Z,4.27
2023-01-03T04:20:30.957Z,4.70
2023-01-03T04:23:00.029Z,7.30
2023-01-03T04:25:27.782Z,3.10
2023-01-03T04:27:55.490Z,5.83
2023-01-03T04:30:23.285Z,5.23
2023-01-03T04:32:51.099Z,5.57
2023-01-03T04:35:18.906Z,6.07
2023-01-03T04:37:46.592Z,6.53
2023-01-03T04:40:15.903Z,5.20
2023-01-03T04:43:01.323Z,4.97
2023-01-03T04:45:29.067Z,5.07
2023-01-03T04:47:56.830Z,3.40
2023-01-03T04:50:24.535Z,4.57
2023-01-03T04:52:52.233Z,4.23
2023-01-03T04:55:21.291Z,4.90
2023-01-03T04:57:49.049Z,4.87
2023-01-03T05:00:17.217Z,7.37
2023-01-03T05:02:45.171Z,5.10
2023-01-03T05:05:12.933Z,6.17
2023-01-03T05:07:40.670Z,2.80
2023-01-03T05:10:09.025Z,5.73
2023-01-03T05:12:38.090Z,5.30
2023-01-03T05:15:06.619Z,3.93
2023-01-03T05:17:34.450Z,4.30
2023-01-03T05:20:19.613Z,12.37
2023-01-03T05:23:04.991Z,4.30
2023-01-03T05:25:50.769Z,4.27
2023-01-03T05:28:22.604Z,7.47
2023-01-03T05:30:50.776Z,4.13
2023-01-03T05:33:18.511Z,5.73
2023-01-03T05:35:47.999Z,3.33
2023-01-03T05:38:16.022Z,5.03
2023-01-03T05:40:44.471Z,6.67
2023-01-03T05:43:12.572Z,5.03
2023-01-03T05:45:42.057Z,5.80
2023-01-03T05:48:10.792Z,4.47
2023-01-03T05:50:39.081Z,4.23
2023-01-03T05:53:06.782Z,5.57
2023-01-03T05:55:36.927Z,5.13
2023-01-03T05:58:11.307Z,6.30
2023-01-03T06:00:41.541Z,4.67
2023-01-03T06:03:10.682Z,2.97
2023-01-03T06:05:39.445Z,4.87
2023-01-03T06:08:09.630Z,5.30
2023-01-03T06:10:40.633Z,5.43
2023-01-03T06:13:08.563Z,5.63
2023-01-03T06:15:36.294Z,4.33
2023-01-03T06:18:03.160Z,5.73
2023-01-03T06:20:32.342Z,4.60
2023-01-03T06:23:00.106Z,6.30
2023-01-03T06:25:27.875Z,5.80
2023-01-03T06:27:56.344Z,4.83
2023-01-03T06:30:24.109Z,6.10
2023-01-03T06:32:51.920Z,5.33
2023-01-03T06:35:19.646Z,3.67
2023-01-03T06:37:48.721Z,4.33
2023-01-03T06:40:16.509Z,4.53
2023-01-03T06:42:44.269Z,6.87
2023-01-03T06:45:32.113Z,6.33
2023-01-03T06:48:22.051Z,3.40
2023-01-03T06:51:07.547Z,6.00
2023-01-03T06:53:39.125Z,6.17
2023-01-03T06:56:09.023Z,5.37
2023-01-03T06:58:37.542Z,2.80
2023-01-03T07:01:07.338Z,5.60
2023-01-03T07:03:35.977Z,4.63
2023-01-03T07:06:03.744Z,5.60
2023-01-03T07:08:31.535Z,6.63
2023-01-03T07:11:00.574Z,5.63
2023-01-03T07:13:45.864Z,6.50
2023-01-03T07:16:15.788Z,4.77
2023-01-03T07:18:45.862Z,5.77
2023-01-03T07:21:15.815Z,4.17
2023-01-03T07:23:43.544Z,6.20
2023-01-03T07:26:12.713Z,7.20
2023-01-03T07:28:40.528Z,6.90
2023-01-03T07:31:08.733Z,6.90
2023-01-03T07:33:39.117Z,4.87
2023-01-03T07:36:12.122Z,4.87
2023-01-03T07:38:41.102Z,6.73
2023-01-03T07:41:09.109Z,6.20
2023-01-03T07:43:38.144Z,10.63
2023-01-03T07:46:11.361Z,6.70
2023-01-03T07:48:40.051Z,5.43
2023-01-03T07:51:09.092Z,8.07
2023-01-03T07:53:37.555Z,5.33
2023-01-03T07:56:12.959Z,7.90
2023-01-03T07:58:44.296Z,9.33
2023-01-03T08:01:14.186Z,8.90
2023-01-03T08:03:43.171Z,8.23
2023-01-03T08:06:12.821Z,6.27
2023-01-03T08:08:41.008Z,6.67
2023-01-03T08:11:29.113Z,5.03
2023-01-03T08:13:58.207Z,9.30
2023-01-03T08:16:26.277Z,7.53
2023-01-03T08:18:54.089Z,5.13
2023-01-03T08:21:21.929Z,7.27
2023-01-03T08:23:49.681Z,5.57
2023-01-03T08:26:18.923Z,8.70
2023-01-03T08:28:46.771Z,7.67
2023-01-03T08:31:19.923Z,7.47
2023-01-03T08:33:51.315Z,7.30
2023-01-03T08:36:20.465Z,7.60
2023-01-03T08:38:52.265Z,7.43
2023-01-03T08:41:25.169Z,6.53
2023-01-03T08:43:54.399Z,6.47
2023-01-03T08:46:23.782Z,7.33
2023-01-03T08:48:51.665Z,3.20
2023-01-03T08:51:19.445Z,6.10
2023-01-03T08:53:47.164Z,6.10
2023-01-03T08:56:15.011Z,6.50
2023-01-03T08:58:42.785Z,6.10
2023-01-03T09:01:11.460Z,6.80
2023-01-03T09:03:40.925Z,4.00
2023-01-03T09:06:09.228Z,8.07
2023-01-03T09:08:37.185Z,8.37
2023-01-03T09:11:06.278Z,6.17
2023-01-03T09:13:34.146Z,5.10
2023-01-03T09:16:03.012Z,6.03
2023-01-03T09:18:30.883Z,10.87
2023-01-03T09:21:00.036Z,6.47
2023-01-03T09:23:27.808Z,3.33
2023-01-03T09:25:55.834Z,5.30
2023-01-03T09:28:24.044Z,6.60
2023-01-03T09:30:51.860Z,9.17
2023-01-03T09:33:19.874Z,5.17
2023-01-03T09:35:47.760Z,5.37
2023-01-03T09:38:16.804Z,4.57
2023-01-03T09:40:47.034Z,7.03
2023-01-03T09:43:23.053Z,3.47
2023-01-03T09:45:55.150Z,8.00
2023-01-03T09:48:29.826Z,4.90
2023-01-03T09:51:19.286Z,5.73
2023-01-03T09:54:04.186Z,5.33
2023-01-03T09:56:49.685Z,6.13
2023-01-03T09:59:36.538Z,5.03
2023-01-03T10:02:46.199Z,6.60
2023-01-03T10:05:26.493Z,5.33
2023-01-03T10:08:14.542Z,5.17
2023-01-03T10:10:52.597Z,7.57
2023-01-03T10:13:31.863Z,4.70
2023-01-03T10:16:07.620Z,7.40
2023-01-03T10:18:50.434Z,5.10
2023-01-03T10:21:25.384Z,8.57
2023-01-03T10:23:55.803Z,12.57
2023-01-03T10:26:32.584Z,4.57
2023-01-03T10:29:01.813Z,4.53
2023-01-03T10:31:41.297Z,4.50
2023-01-03T10:34:11.449Z,5.87
2023-01-03T10:36:39.260Z,9.20
2023-01-03T10:39:09.608Z,7.10
2023-01-03T10:41:43.792Z,6.67
2023-01-03T10:44:24.985Z,5.80
2023-01-03T10:46:55.133Z,5.00
2023-01-03T10:49:27.902Z,4.43
2023-01-03T10:52:00.926Z,6.23
2023-01-03T10:54:45.618Z,5.63
2023-01-03T10:57:40.061Z,4.70
2023-01-03T11:00:27.690Z,6.93
2023-01-03T11:02:56.673Z,4.53
2023-01-03T11:05:26.460Z,8.57
2023-01-03T11:07:56.446Z,9.37
2023-01-03T11:10:25.422Z,5.03
2023-01-03T11:12:54.850Z,7.97
2023-01-03T11:15:38.844Z,5.70
2023-01-03T11:18:16.987Z,15.07
2023-01-03T11:20:48.468Z,7.43
2023-01-03T11:23:19.321Z,6.57
2023-01-03T11:25:58.703Z,7.07
2023-01-03T11:28:50.936Z,5.43
2023-01-03T11:31:35.168Z,13.43
2023-01-03T11:34:17.579Z,7.83
2023-01-03T11:36:50.961Z,10.27
2023-01-03T11:39:33.353Z,6.70
2023-01-03T11:42:32.461Z,7.07
2023-01-03T11:45:32.816Z,5.20
2023-01-03T11:48:12.849Z,9.07
2023-01-03T11:50:50.827Z,9.90
2023-01-03T11:53:29.653Z,8.87
2023-01-03T11:56:08.733Z,7.27
2023-01-03T11:58:49.173Z,6.93
2023-01-03T12:01:32.749Z,9.30
2023-01-03T12:04:24.562Z,7.40
2023-01-03T12:07:45.702Z,8.67
2023-01-03T12:10:03.025Z,11.30
2023-01-03T12:12:49.527Z,9.07
2023-01-03T12:15:22.274Z,9.87
2023-01-03T12:17:57.117Z,8.40
2023-01-03T12:20:28.999Z,7.30
2023-01-03T12:23:02.721Z,11.73
2023-01-03T12:25:35.481Z,7.97
2023-01-03T12:28:11.123Z,8.43
2023-01-03T12:30:44.311Z,7.87
2023-01-03T12:33:34.027Z,7.57
2023-01-03T12:36:08.401Z,10.43
2023-01-03T12:38:42.225Z,9.23
2023-01-03T12:41:19.649Z,9.73
2023-01-03T12:43:56.129Z,10.77
2023-01-03T12:46:31.389Z,11.10
2023-01-03T12:49:07.633Z,9.53
2023-01-03T12:51:37.234Z,12.33
2023-01-03T12:54:17.149Z,11.37
2023-01-03T12:57:01.609Z,13.23
2023-01-03T12:59:45.657Z,13.83
2023-01-03T13:02:23.183Z,12.73
2023-01-03T13:04:56.003Z,9.30
2023-01-03T13:07:26.883Z,15.60
2023-01-03T13:10:01.485Z,16.70
2023-01-03T13:12:31.502Z,10.50
2023-01-03T13:15:14.680Z,14.33
2023-01-03T13:17:47.321Z,11.10
2023-01-03T13:20:36.380Z,13.67
2023-01-03T13:23:33.783Z,15.30
2023-01-03T13:26:20.898Z,10.70
2023-01-03T13:28:48.755Z,14.17
2023-01-03T13:31:38.475Z,11.90
2023-01-03T13:34:35.593Z,12.27
2023-01-03T13:37:18.493Z,11.87
2023-01-03T13:40:02.921Z,13.20
2023-01-03T13:42:36.265Z,9.70
2023-01-03T13:45:56.052Z,15.77
2023-01-03T13:48:42.560Z,13.63
2023-01-03T13:51:45.025Z,15.80
2023-01-03T13:54:28.089Z,15.27
2023-01-03T13:57:04.154Z,12.03
2023-01-03T13:59:37.366Z,12.90
2023-01-03T14:02:45.535Z,14.03
2023-01-03T14:05:33.758Z,11.73
2023-01-03T14:08:23.799Z,11.00
2023-01-03T14:11:28.832Z,8.73
2023-01-03T14:14:02.036Z,11.93
2023-01-03T14:16:37.919Z,16.53
2023-01-03T14:19:14.125Z,12.80
2023-01-03T14:21:46.365Z,15.43
2023-01-03T14:24:22.730Z,8.47
2023-01-03T14:26:50.733Z,12.57
2023-01-03T14:29:23.159Z,14.47
2023-01-03T14:31:55.639Z,10.90
2023-01-03T14:34:34.357Z,15.53
2023-01-03T14:37:04.549Z,10.60
2023-01-03T14:42:04.326Z,13.80
2023-01-03T14:44:34.636Z,15.47
2023-01-03T14:47:04.869Z,17.67
2023-01-03T14:49:43.829Z,17.30
2023-01-03T14:52:19.190Z,8.90
2023-01-03T14:54:51.559Z,20.70
2023-01-03T14:57:21.762Z,15.73
2023-01-03T15:00:01.467Z,15.80
2023-01-03T15:02:35.133Z,18.43
2023-01-03T15:05:03.337Z,17.07
2023-01-03T15:07:36.129Z,18.77
2023-01-03T15:10:07.587Z,14.67
2023-01-03T15:12:38.712Z,12.43
2023-01-03T15:15:20.287Z,10.20
2023-01-03T15:17:49.933Z,16.10
2023-01-03T15:20:21.826Z,16.50
2023-01-03T15:22:49.720Z,17.73
2023-01-03T15:25:20.064Z,25.27
2023-01-03T15:27:49.946Z,25.40
2023-01-03T15:30:23.445Z,23.33
2023-01-03T15:32:54.863Z,11.73
2023-01-03T15:35:24.874Z,21.33
2023-01-03T15:37:56.250Z,14.07
2023-01-03T15:40:24.241Z,16.00
2023-01-03T15:43:10.161Z,15.13
2023-01-03T15:45:41.320Z,15.67
2023-01-03T15:48:14.956Z,21.53
2023-01-03T15:50:49.353Z,21.40
2023-01-03T15:53:23.820Z,20.67
2023-01-03T15:55:54.195Z,16.27
2023-01-03T15:58:22.202Z,15.93
2023-01-03T16:00:51.356Z,17.03
2023-01-03T16:03:20.749Z,18.10
2023-01-03T16:05:48.791Z,21.30
2023-01-03T16:08:26.022Z,16.33
2023-01-03T16:10:54.590Z,15.33
2023-01-03T16:13:24.265Z,17.03
2023-01-03T16:15:54.234Z,15.60
2023-01-03T16:18:27.703Z,16.47
2023-01-03T16:20:56.973Z,15.43
2023-01-03T16:23:28.783Z,17.80
2023-01-03T16:25:57.251Z,14.97
2023-01-03T16:28:25.790Z,17.20
2023-01-03T16:31:02.102Z,19.83
2023-01-03T16:33:33.458Z,20.60
2023-01-03T16:36:01.389Z,21.23
2023-01-03T16:38:30.539Z,18.43
2023-01-03T16:40:58.744Z,20.73
2023-01-03T16:43:27.954Z,18.77
2023-01-03T16:46:00.531Z,19.97
2023-01-03T16:48:37.568Z,20.10
2023-01-03T16:51:06.189Z,19.40
2023-01-03T16:53:37.258Z,24.50
2023-01-03T16:56:07.292Z,25.30
2023-01-03T16:58:35.313Z,20.10
2023-01-03T17:01:05.286Z,22.03
2023-01-03T17:03:39.543Z,19.33
2023-01-03T17:06:20.692Z,16.70
2023-01-03T17:08:48.650Z,21.07
2023-01-03T17:11:17.393Z,22.17
2023-01-03T17:13:47.791Z,18.90
2023-01-03T17:16:18.456Z,28.60
2023-01-03T17:18:46.749Z,22.13
2023-01-03T17:21:21.327Z,23.13
2023-01-03T17:23:49.900Z,23.93
2023-01-03T17:26:20.277Z,20.20
2023-01-03T17:28:49.522Z,21.90
2023-01-03T17:31:20.977Z,23.77
2023-01-03T17:33:48.821Z,24.40
2023-01-03T17:36:19.902Z,21.60
2023-01-03T17:38:48.122Z,19.40
2023-01-03T17:41:19.330Z,25.40
2023-01-03T17:43:47.494Z,19.07
2023-01-03T17:46:39.713Z,23.03
2023-01-03T17:49:26.474Z,19.40
2023-01-03T17:51:56.940Z,25.00
2023-01-03T17:54:27.535Z,26.87
2023-01-03T17:56:56.743Z,21.57
2023-01-03T17:59:24.592Z,24.97
2023-01-03T18:01:54.687Z,21.20
2023-01-03T18:04:22.869Z,20.83
2023-01-03T18:06:55.356Z,21.63
2023-01-03T18:09:23.353Z,18.57
2023-01-03T18:11:51.139Z,19.87
2023-01-03T18:14:19.174Z,17.37
2023-01-03T18:16:51.591Z,24.77
2023-01-03T18:19:24.079Z,24.37
2023-01-03T18:21:52.039Z,33.37
2023-01-03T18:24:22.734Z,42.43
2023-01-03T18:26:53.924Z,27.60
2023-01-03T18:29:21.761Z,35.33
2023-01-03T18:31:49.939Z,33.37
2023-01-03T18:34:17.730Z,38.97
2023-01-03T18:36:50.314Z,45.87
2023-01-03T18:39:24.048Z,46.50
2023-01-03T18:41:51.748Z,39.27
2023-01-03T18:44:22.046Z,43.23
2023-01-03T18:46:50.352Z,42.97
2023-01-03T18:49:19.285Z,40.17
2023-01-03T18:51:51.085Z,42.00
2023-01-03T18:54:20.456Z,41.57
2023-01-03T18:56:48.259Z,44.43
2023-01-03T18:59:22.098Z,37.27
2023-01-03T19:01:50.095Z,38.77
2023-01-03T19:04:18.177Z,30.00
2023-01-03T19:06:51.282Z,29.13
2023-01-03T19:09:22.746Z,25.17
2023-01-03T19:11:51.406Z,26.93
2023-01-03T19:14:19.159Z,26.13
2023-01-03T19:16:46.904Z,24.60
2023-01-03T19:19:14.720Z,25.73
2023-01-03T19:21:45.589Z,23.50
2023-01-03T19:24:23.517Z,22.70
2023-01-03T19:26:54.760Z,19.47
2023-01-03T19:29:25.703Z,18.07
2023-01-03T19:31:56.275Z,20.87
2023-01-03T19:34:25.593Z,22.57
2023-01-03T19:36:53.953Z,22.07
2023-01-03T19:39:25.879Z,19.37
2023-01-03T19:42:13.428Z,19.40
2023-01-03T19:44:41.659Z,19.20
2023-01-03T19:47:14.231Z,19.50
2023-01-03T19:49:41.991Z,20.50
2023-01-03T19:52:09.813Z,20.17
2023-01-03T19:54:38.927Z,20.37
2023-01-03T19:57:14.070Z,20.97
2023-01-03T19:59:42.690Z,26.63
2023-01-03T20:02:24.788Z,24.13
2023-01-03T20:04:53.459Z,24.10
2023-01-03T20:07:21.245Z,26.00
2023-01-03T20:09:50.341Z,25.63
2023-01-03T20:12:24.056Z,22.83
2023-01-03T20:14:53.118Z,26.77
2023-01-03T20:17:22.369Z,33.53
2023-01-03T20:19:50.394Z,38.70
2023-01-03T20:22:44.959Z,32.07
2023-01-03T20:25:18.033Z,33.63
2023-01-03T20:27:46.673Z,31.17
2023-01-03T20:30:16.879Z,28.67
2023-01-03T20:32:44.947Z,25.30
2023-01-03T20:38:05.120Z,28.73
2023-01-03T20:40:34.211Z,34.63
2023-01-03T20:43:03.819Z,28.20
2023-01-03T20:45:32.445Z,24.73
2023-01-03T20:48:00.669Z,21.00
2023-01-03T20:50:29.739Z,23.67
2023-01-03T20:52:58.441Z,21.67
2023-01-03T20:55:27.661Z,18.80
2023-01-03T20:57:56.784Z,21.63
2023-01-03T21:00:30.193Z,18.37
2023-01-03T21:02:58.252Z,18.10
2023-01-03T21:05:26.255Z,19.27
2023-01-03T21:08:11.594Z,15.80
2023-01-03T21:10:41.253Z,17.77
2023-01-03T21:13:11.578Z,19.90
2023-01-03T21:15:39.656Z,18.53
2023-01-03T21:18:07.547Z,16.37
2023-01-03T21:20:35.363Z,17.13
2023-01-03T21:23:03.152Z,12.00
2023-01-03T21:25:33.285Z,15.27
2023-01-03T21:28:03.090Z,15.40
2023-01-03T21:30:33.831Z,14.87
2023-01-03T21:33:01.570Z,12.97
2023-01-03T21:35:29.505Z,12.07
2023-01-03T21:37:57.481Z,15.00
2023-01-03T21:40:26.982Z,12.20
2023-01-03T21:43:05.096Z,11.37
2023-01-03T21:45:36.788Z,15.03
2023-01-03T21:48:06.638Z,15.03
2023-01-03T21:50:36.562Z,15.97
2023-01-03T21:53:04.535Z,17.90
2023-01-03T21:55:32.530Z,14.90
2023-01-03T21:58:01.604Z,18.77
2023-01-03T22:00:29.337Z,16.33
2023-01-03T22:03:16.161Z,19.47
2023-01-03T22:05:44.031Z,16.73
2023-01-03T22:08:11.850Z,17.47
2023-01-03T22:10:42.091Z,16.87
2023-01-03T22:13:11.523Z,15.80
2023-01-03T22:15:40.061Z,21.67
2023-01-03T22:18:13.008Z,20.23
2023-01-03T22:20:40.807Z,14.83
2023-01-03T22:23:08.721Z,14.87
2023-01-03T22:25:36.935Z,18.47
2023-01-03T22:28:05.031Z,18.90
2023-01-03T22:30:33.053Z,13.87
2023-01-03T22:33:00.802Z,13.17
2023-01-03T22:35:29.866Z,11.03
2023-01-03T22:37:57.805Z,12.97
2023-01-03T22:40:25.642Z,14.97
2023-01-03T22:42:53.370Z,14.33
2023-01-03T22:45:21.267Z,14.20
2023-01-03T22:47:49.010Z,16.23
2023-01-03T22:50:16.801Z,15.77
2023-01-03T22:52:45.891Z,13.63
2023-01-03T22:55:13.723Z,15.27
2023-01-03T22:57:41.507Z,16.20
2023-01-03T23:00:11.436Z,13.90
2023-01-03T23:02:41.929Z,11.77
2023-01-03T23:05:10.218Z,12.27
2023-01-03T23:07:39.583Z,10.57
2023-01-03T23:10:10.789Z,10.80
2023-01-03T23:12:56.797Z,12.07
2023-01-03T23:15:24.744Z,12.03
2023-01-03T23:17:58.267Z,12.53
2023-01-03T23:20:28.789Z,9.00
2023-01-03T23:22:59.873Z,11.83
2023-01-03T23:25:29.802Z,9.63
2023-01-03T23:27:57.616Z,10.03
2023-01-03T23:30:25.983Z,8.50
2023-01-03T23:32:54.032Z,9.10
2023-01-03T23:35:21.756Z,10.23
2023-01-03T23:37:49.550Z,9.80
2023-01-03T23:40:17.390Z,12.10
2023-01-03T23:42:46.448Z,12.17
2023-01-03T23:45:14.173Z,9.33
2023-01-03T23:47:41.893Z,8.20
2023-01-03T23:50:10.190Z,10.63
2023-01-03T23:52:37.989Z,9.87
2023-01-03T23:55:12.222Z,8.87
2023-01-03T23:57:40.797Z,9.40
